This is the latest recevied weather packets stored in our database for station/object K6QM-1. If no packets are shown the sender has not sent any weather packets the latest 10 day(s).
| Time | Temp. | Humidity | Pressure | Rain* | Wind** | Luminosity | Snow |
|---|---|---|---|---|---|---|---|
| 1777428603 | 21.11° C | 45% | 1018.1 hPa | - | - | - | - |
| 1777427703 | 21.67° C | 45% | 1018.1 hPa | - | - | - | - |
| 1777426803 | 22.22° C | 44% | 1018 hPa | - | - | - | - |
| 1777425904 | 22.22° C | 44% | 1017.9 hPa | - | - | - | - |
| 1777425003 | 22.78° C | 43% | 1017.9 hPa | - | - | - | - |
| 1777424103 | 22.78° C | 43% | 1017.7 hPa | - | - | - | - |
| 1777423203 | 23.33° C | 41% | 1017.8 hPa | - | - | - | - |
| 1777422303 | 23.33° C | 41% | 1017.5 hPa | - | - | - | - |
| 1777421402 | 21.11° C | 40% | 1013.9 hPa | - | - | - | - |
| 1777420503 | 23.33° C | 40% | 1017.7 hPa | - | - | - | - |
| 1777418703 | 22.78° C | 42% | 1018 hPa | - | - | - | - |
| 1777417802 | 22.78° C | 43% | 1018.1 hPa | - | - | - | - |
| 1777416902 | 23.33° C | 42% | 1018 hPa | - | - | - | - |
| 1777416002 | 23.33° C | 43% | 1018.2 hPa | - | - | - | - |
| 1777415102 | 23.33° C | 41% | 1018.3 hPa | - | - | - | - |
| 1777414202 | 23.33° C | 43% | 1018.3 hPa | - | - | - | - |
| 1777413301 | 23.33° C | 43% | 1018.4 hPa | - | - | - | - |
| 1777412401 | 22.78° C | 43% | 1018.5 hPa | - | - | - | - |
| 1777411502 | 22.78° C | 42% | 1018.8 hPa | - | - | - | - |
| 1777410601 | 22.22° C | 42% | 1018.9 hPa | - | - | - | - |
| 1777409701 | 22.78° C | 42% | 1018.8 hPa | - | - | - | - |
| 1777408801 | 22.78° C | 41% | 1019 hPa | - | - | - | - |
| 1777407902 | 22.78° C | 41% | 1018.8 hPa | - | - | - | - |
| 1777407001 | 22.22° C | 41% | 1019.5 hPa | - | - | - | - |
| 1777406101 | 22.22° C | 40% | 1018.8 hPa | - | - | - | - |
* Rain since midnight (hover to see other rain measurements)
** Current wind speed in m/s (hover to see current wind gust speed)